sensor_id;sensor_type;location;lat;lon;timestamp;temperature;humidity
28654;DHT22;24320;56.980;24.336;2023-06-14T00:01:35;9.50;99.90
28654;DHT22;24320;56.980;24.336;2023-06-14T00:04:02;9.50;99.90
28654;DHT22;24320;56.980;24.336;2023-06-14T00:06:29;9.50;99.90
28654;DHT22;24320;56.980;24.336;2023-06-14T00:08:57;9.40;99.90
28654;DHT22;24320;56.980;24.336;2023-06-14T00:11:24;9.40;99.90
28654;DHT22;24320;56.980;24.336;2023-06-14T00:13:53;9.40;99.90
28654;DHT22;24320;56.980;24.336;2023-06-14T00:16:20;9.30;99.90
28654;DHT22;24320;56.980;24.336;2023-06-14T00:18:47;9.20;99.90
28654;DHT22;24320;56.980;24.336;2023-06-14T00:21:15;9.20;99.90
28654;DHT22;24320;56.980;24.336;2023-06-14T00:23:42;9.10;99.90
28654;DHT22;24320;56.980;24.336;2023-06-14T00:26:09;9.20;99.90
28654;DHT22;24320;56.980;24.336;2023-06-14T00:28:36;9.20;99.90
28654;DHT22;24320;56.980;24.336;2023-06-14T00:31:03;9.20;99.90
28654;DHT22;24320;56.980;24.336;2023-06-14T00:33:30;9.10;99.90
28654;DHT22;24320;56.980;24.336;2023-06-14T00:35:57;9.10;99.90
28654;DHT22;24320;56.980;24.336;2023-06-14T00:38:24;9.10;99.90
28654;DHT22;24320;56.980;24.336;2023-06-14T00:40:51;9.00;99.90
28654;DHT22;24320;56.980;24.336;2023-06-14T00:43:18;9.00;99.90
28654;DHT22;24320;56.980;24.336;2023-06-14T00:45:45;9.00;99.90
28654;DHT22;24320;56.980;24.336;2023-06-14T00:48:12;9.00;99.90
28654;DHT22;24320;56.980;24.336;2023-06-14T00:50:40;9.00;99.90
28654;DHT22;24320;56.980;24.336;2023-06-14T00:53:08;9.00;99.90
28654;DHT22;24320;56.980;24.336;2023-06-14T00:55:35;9.00;99.90
28654;DHT22;24320;56.980;24.336;2023-06-14T00:58:02;8.90;99.90
28654;DHT22;24320;56.980;24.336;2023-06-14T01:00:30;8.90;99.90
28654;DHT22;24320;56.980;24.336;2023-06-14T01:02:57;8.90;99.90
28654;DHT22;24320;56.980;24.336;2023-06-14T01:05:24;8.90;99.90
28654;DHT22;24320;56.980;24.336;2023-06-14T01:11:02;9.00;99.90
28654;DHT22;24320;56.980;24.336;2023-06-14T01:13:43;8.90;99.90
28654;DHT22;24320;56.980;24.336;2023-06-14T01:16:10;8.90;99.90
28654;DHT22;24320;56.980;24.336;2023-06-14T01:18:38;8.80;99.90
28654;DHT22;24320;56.980;24.336;2023-06-14T01:21:05;8.80;99.90
28654;DHT22;24320;56.980;24.336;2023-06-14T01:23:36;8.80;99.90
28654;DHT22;24320;56.980;24.336;2023-06-14T01:26:03;8.80;99.90
28654;DHT22;24320;56.980;24.336;2023-06-14T01:28:31;8.80;99.90
28654;DHT22;24320;56.980;24.336;2023-06-14T01:31:02;8.80;99.90
28654;DHT22;24320;56.980;24.336;2023-06-14T01:33:32;8.80;99.90
28654;DHT22;24320;56.980;24.336;2023-06-14T01:36:02;8.70;99.90
28654;DHT22;24320;56.980;24.336;2023-06-14T01:38:30;8.80;99.90
28654;DHT22;24320;56.980;24.336;2023-06-14T01:40:59;8.80;99.90
28654;DHT22;24320;56.980;24.336;2023-06-14T01:43:29;8.80;99.90
28654;DHT22;24320;56.980;24.336;2023-06-14T01:45:57;8.80;99.90
28654;DHT22;24320;56.980;24.336;2023-06-14T01:48:26;8.80;99.90
28654;DHT22;24320;56.980;24.336;2023-06-14T01:50:53;8.90;99.90
28654;DHT22;24320;56.980;24.336;2023-06-14T01:53:20;8.90;99.90
28654;DHT22;24320;56.980;24.336;2023-06-14T01:55:47;9.00;99.90
28654;DHT22;24320;56.980;24.336;2023-06-14T01:58:16;9.10;99.90
28654;DHT22;24320;56.980;24.336;2023-06-14T02:00:45;9.10;99.90
28654;DHT22;24320;56.980;24.336;2023-06-14T02:03:14;9.20;99.90
28654;DHT22;24320;56.980;24.336;2023-06-14T02:05:42;9.30;99.90
28654;DHT22;24320;56.980;24.336;2023-06-14T02:08:09;9.30;99.90
28654;DHT22;24320;56.980;24.336;2023-06-14T02:10:36;9.30;99.90
28654;DHT22;24320;56.980;24.336;2023-06-14T02:13:03;9.40;99.90
28654;DHT22;24320;56.980;24.336;2023-06-14T02:15:30;9.50;99.90
28654;DHT22;24320;56.980;24.336;2023-06-14T02:18:04;9.60;99.90
28654;DHT22;24320;56.980;24.336;2023-06-14T02:20:31;9.70;99.90
28654;DHT22;24320;56.980;24.336;2023-06-14T02:22:58;9.70;99.90
28654;DHT22;24320;56.980;24.336;2023-06-14T02:25:26;9.80;99.90
28654;DHT22;24320;56.980;24.336;2023-06-14T02:27:55;9.90;99.90
28654;DHT22;24320;56.980;24.336;2023-06-14T02:30:22;10.00;99.90
28654;DHT22;24320;56.980;24.336;2023-06-14T02:32:49;10.10;99.90
28654;DHT22;24320;56.980;24.336;2023-06-14T02:35:18;10.20;99.90
28654;DHT22;24320;56.980;24.336;2023-06-14T02:37:45;10.30;99.90
28654;DHT22;24320;56.980;24.336;2023-06-14T02:40:12;10.40;99.90
28654;DHT22;24320;56.980;24.336;2023-06-14T02:42:40;10.50;99.90
28654;DHT22;24320;56.980;24.336;2023-06-14T02:45:07;10.60;99.90
28654;DHT22;24320;56.980;24.336;2023-06-14T02:47:35;10.80;99.90
28654;DHT22;24320;56.980;24.336;2023-06-14T02:50:02;10.90;99.90
28654;DHT22;24320;56.980;24.336;2023-06-14T02:52:29;11.10;99.90
28654;DHT22;24320;56.980;24.336;2023-06-14T02:54:56;11.40;99.90
28654;DHT22;24320;56.980;24.336;2023-06-14T02:57:23;11.70;99.90
28654;DHT22;24320;56.980;24.336;2023-06-14T02:59:51;12.00;99.90
28654;DHT22;24320;56.980;24.336;2023-06-14T03:02:19;12.30;99.90
28654;DHT22;24320;56.980;24.336;2023-06-14T03:04:46;12.60;99.90
28654;DHT22;24320;56.980;24.336;2023-06-14T03:07:13;12.90;99.90
28654;DHT22;24320;56.980;24.336;2023-06-14T03:09:40;13.60;99.90
28654;DHT22;24320;56.980;24.336;2023-06-14T03:12:08;14.50;99.90
28654;DHT22;24320;56.980;24.336;2023-06-14T03:14:36;15.40;99.90
28654;DHT22;24320;56.980;24.336;2023-06-14T03:17:03;16.30;99.90
28654;DHT22;24320;56.980;24.336;2023-06-14T03:19:31;17.20;99.90
28654;DHT22;24320;56.980;24.336;2023-06-14T03:21:58;18.00;99.90
28654;DHT22;24320;56.980;24.336;2023-06-14T03:24:25;18.70;99.90
28654;DHT22;24320;56.980;24.336;2023-06-14T03:26:55;19.10;99.90
28654;DHT22;24320;56.980;24.336;2023-06-14T03:29:23;19.60;99.90
28654;DHT22;24320;56.980;24.336;2023-06-14T03:32:01;20.40;99.90
28654;DHT22;24320;56.980;24.336;2023-06-14T03:34:28;21.30;99.90
28654;DHT22;24320;56.980;24.336;2023-06-14T03:36:55;21.90;97.40
28654;DHT22;24320;56.980;24.336;2023-06-14T03:39:22;22.40;94.00
28654;DHT22;24320;56.980;24.336;2023-06-14T03:41:49;22.80;91.60
28654;DHT22;24320;56.980;24.336;2023-06-14T03:44:17;23.10;90.00
28654;DHT22;24320;56.980;24.336;2023-06-14T03:46:45;23.50;85.80
28654;DHT22;24320;56.980;24.336;2023-06-14T03:49:13;24.00;80.20
28654;DHT22;24320;56.980;24.336;2023-06-14T03:51:40;24.30;76.90
28654;DHT22;24320;56.980;24.336;2023-06-14T03:54:08;24.50;74.60
28654;DHT22;24320;56.980;24.336;2023-06-14T03:56:38;24.70;72.00
28654;DHT22;24320;56.980;24.336;2023-06-14T03:59:05;25.00;69.40
28654;DHT22;24320;56.980;24.336;2023-06-14T04:01:32;25.30;66.40
28654;DHT22;24320;56.980;24.336;2023-06-14T04:04:00;25.30;67.60
28654;DHT22;24320;56.980;24.336;2023-06-14T04:06:28;25.40;65.10
28654;DHT22;24320;56.980;24.336;2023-06-14T04:08:59;25.50;64.50
28654;DHT22;24320;56.980;24.336;2023-06-14T04:11:30;25.50;63.50
28654;DHT22;24320;56.980;24.336;2023-06-14T04:13:58;25.30;62.80
28654;DHT22;24320;56.980;24.336;2023-06-14T04:16:25;25.20;62.90
28654;DHT22;24320;56.980;24.336;2023-06-14T04:18:54;25.30;62.60
28654;DHT22;24320;56.980;24.336;2023-06-14T04:21:22;25.40;64.00
28654;DHT22;24320;56.980;24.336;2023-06-14T04:23:50;25.60;65.40
28654;DHT22;24320;56.980;24.336;2023-06-14T04:26:19;25.80;67.20
28654;DHT22;24320;56.980;24.336;2023-06-14T04:28:49;26.20;62.20
28654;DHT22;24320;56.980;24.336;2023-06-14T04:31:17;26.50;61.50
28654;DHT22;24320;56.980;24.336;2023-06-14T04:33:45;26.50;61.30
28654;DHT22;24320;56.980;24.336;2023-06-14T04:36:13;26.30;61.40
28654;DHT22;24320;56.980;24.336;2023-06-14T04:38:44;26.20;62.00
28654;DHT22;24320;56.980;24.336;2023-06-14T04:41:13;26.00;60.50
28654;DHT22;24320;56.980;24.336;2023-06-14T04:43:40;25.80;63.20
28654;DHT22;24320;56.980;24.336;2023-06-14T04:46:07;25.70;60.20
28654;DHT22;24320;56.980;24.336;2023-06-14T04:48:38;25.70;62.20
28654;DHT22;24320;56.980;24.336;2023-06-14T04:51:08;25.90;61.20
28654;DHT22;24320;56.980;24.336;2023-06-14T04:53:35;26.00;59.40
28654;DHT22;24320;56.980;24.336;2023-06-14T04:56:03;26.00;59.20
28654;DHT22;24320;56.980;24.336;2023-06-14T04:58:30;25.90;59.10
28654;DHT22;24320;56.980;24.336;2023-06-14T05:00:59;26.00;60.40
28654;DHT22;24320;56.980;24.336;2023-06-14T05:03:26;26.20;58.00
28654;DHT22;24320;56.980;24.336;2023-06-14T05:05:54;26.20;58.90
28654;DHT22;24320;56.980;24.336;2023-06-14T05:08:22;26.40;57.10
28654;DHT22;24320;56.980;24.336;2023-06-14T05:10:50;26.40;57.40
28654;DHT22;24320;56.980;24.336;2023-06-14T05:13:18;26.70;58.70
28654;DHT22;24320;56.980;24.336;2023-06-14T05:15:45;27.10;58.50
28654;DHT22;24320;56.980;24.336;2023-06-14T05:18:12;27.50;56.00
28654;DHT22;24320;56.980;24.336;2023-06-14T05:20:40;27.40;56.50
28654;DHT22;24320;56.980;24.336;2023-06-14T05:23:09;27.50;56.40
28654;DHT22;24320;56.980;24.336;2023-06-14T05:25:44;27.60;55.10
28654;DHT22;24320;56.980;24.336;2023-06-14T05:28:11;27.70;54.70
28654;DHT22;24320;56.980;24.336;2023-06-14T05:30:39;27.80;55.30
28654;DHT22;24320;56.980;24.336;2023-06-14T05:33:06;28.10;55.40
28654;DHT22;24320;56.980;24.336;2023-06-14T05:35:34;28.40;55.60
28654;DHT22;24320;56.980;24.336;2023-06-14T05:38:01;28.80;56.10
28654;DHT22;24320;56.980;24.336;2023-06-14T05:40:28;29.10;54.00
28654;DHT22;24320;56.980;24.336;2023-06-14T05:42:55;29.20;52.10
28654;DHT22;24320;56.980;24.336;2023-06-14T05:45:22;29.20;51.80
28654;DHT22;24320;56.980;24.336;2023-06-14T05:47:49;29.40;53.50
28654;DHT22;24320;56.980;24.336;2023-06-14T05:50:17;29.60;48.80
28654;DHT22;24320;56.980;24.336;2023-06-14T05:52:44;29.30;48.70
28654;DHT22;24320;56.980;24.336;2023-06-14T05:55:11;29.10;48.50
28654;DHT22;24320;56.980;24.336;2023-06-14T05:57:41;28.90;48.00
28654;DHT22;24320;56.980;24.336;2023-06-14T06:00:09;28.70;47.10
28654;DHT22;24320;56.980;24.336;2023-06-14T06:02:37;28.00;47.70
28654;DHT22;24320;56.980;24.336;2023-06-14T06:05:05;27.60;48.20
28654;DHT22;24320;56.980;24.336;2023-06-14T06:07:32;27.30;48.80
28654;DHT22;24320;56.980;24.336;2023-06-14T06:10:03;27.10;49.40
28654;DHT22;24320;56.980;24.336;2023-06-14T06:12:31;27.30;49.30
28654;DHT22;24320;56.980;24.336;2023-06-14T06:15:00;27.60;48.80
28654;DHT22;24320;56.980;24.336;2023-06-14T06:17:27;28.10;48.40
28654;DHT22;24320;56.980;24.336;2023-06-14T06:20:08;28.10;47.50
28654;DHT22;24320;56.980;24.336;2023-06-14T06:22:36;27.80;45.80
28654;DHT22;24320;56.980;24.336;2023-06-14T06:25:03;27.80;48.00
28654;DHT22;24320;56.980;24.336;2023-06-14T06:27:30;28.00;47.10
28654;DHT22;24320;56.980;24.336;2023-06-14T06:29:57;27.70;45.90
28654;DHT22;24320;56.980;24.336;2023-06-14T06:32:24;27.20;46.60
28654;DHT22;24320;56.980;24.336;2023-06-14T06:34:51;26.90;47.00
28654;DHT22;24320;56.980;24.336;2023-06-14T06:37:19;26.90;46.70
28654;DHT22;24320;56.980;24.336;2023-06-14T06:39:46;26.90;46.40
28654;DHT22;24320;56.980;24.336;2023-06-14T06:42:14;27.10;46.60
28654;DHT22;24320;56.980;24.336;2023-06-14T06:44:41;27.40;47.10
28654;DHT22;24320;56.980;24.336;2023-06-14T06:47:08;27.70;44.30
28654;DHT22;24320;56.980;24.336;2023-06-14T06:49:37;27.70;45.70
28654;DHT22;24320;56.980;24.336;2023-06-14T06:52:06;27.80;44.40
28654;DHT22;24320;56.980;24.336;2023-06-14T06:54:34;27.90;43.90
28654;DHT22;24320;56.980;24.336;2023-06-14T06:57:01;28.00;43.30
28654;DHT22;24320;56.980;24.336;2023-06-14T06:59:28;28.00;42.10
28654;DHT22;24320;56.980;24.336;2023-06-14T07:01:56;28.00;41.70
28654;DHT22;24320;56.980;24.336;2023-06-14T07:04:23;27.90;42.40
28654;DHT22;24320;56.980;24.336;2023-06-14T07:06:50;28.10;43.80
28654;DHT22;24320;56.980;24.336;2023-06-14T07:09:18;28.50;41.80
28654;DHT22;24320;56.980;24.336;2023-06-14T07:11:47;28.60;41.50
28654;DHT22;24320;56.980;24.336;2023-06-14T07:14:14;28.50;40.50
28654;DHT22;24320;56.980;24.336;2023-06-14T07:16:41;28.60;41.60
28654;DHT22;24320;56.980;24.336;2023-06-14T07:19:09;28.80;42.10
28654;DHT22;24320;56.980;24.336;2023-06-14T07:21:37;28.80;40.80
28654;DHT22;24320;56.980;24.336;2023-06-14T07:24:07;28.60;43.50
28654;DHT22;24320;56.980;24.336;2023-06-14T07:26:35;28.60;41.20
28654;DHT22;24320;56.980;24.336;2023-06-14T07:29:02;28.70;41.50
28654;DHT22;24320;56.980;24.336;2023-06-14T07:31:29;28.60;40.50
28654;DHT22;24320;56.980;24.336;2023-06-14T07:33:56;28.40;40.50
28654;DHT22;24320;56.980;24.336;2023-06-14T07:36:24;28.20;41.80
28654;DHT22;24320;56.980;24.336;2023-06-14T07:38:51;28.40;40.30
28654;DHT22;24320;56.980;24.336;2023-06-14T07:41:18;28.40;39.90
28654;DHT22;24320;56.980;24.336;2023-06-14T07:43:45;28.30;40.40
28654;DHT22;24320;56.980;24.336;2023-06-14T07:46:30;28.30;41.00
28654;DHT22;24320;56.980;24.336;2023-06-14T07:48:57;28.40;41.60
28654;DHT22;24320;56.980;24.336;2023-06-14T07:51:24;28.30;40.10
28654;DHT22;24320;56.980;24.336;2023-06-14T07:53:52;28.20;42.00
28654;DHT22;24320;56.980;24.336;2023-06-14T07:56:18;28.50;43.00
28654;DHT22;24320;56.980;24.336;2023-06-14T07:58:46;28.70;41.70
28654;DHT22;24320;56.980;24.336;2023-06-14T08:01:13;28.80;41.20
28654;DHT22;24320;56.980;24.336;2023-06-14T08:03:40;28.80;41.20
28654;DHT22;24320;56.980;24.336;2023-06-14T08:06:07;28.70;40.50
28654;DHT22;24320;56.980;24.336;2023-06-14T08:08:34;28.60;42.70
28654;DHT22;24320;56.980;24.336;2023-06-14T08:11:02;28.90;44.20
28654;DHT22;24320;56.980;24.336;2023-06-14T08:13:29;29.20;41.60
28654;DHT22;24320;56.980;24.336;2023-06-14T08:15:57;29.40;43.40
28654;DHT22;24320;56.980;24.336;2023-06-14T08:18:25;29.40;39.00
28654;DHT22;24320;56.980;24.336;2023-06-14T08:20:52;29.20;39.00
28654;DHT22;24320;56.980;24.336;2023-06-14T08:23:20;28.70;39.80
28654;DHT22;24320;56.980;24.336;2023-06-14T08:25:48;28.40;42.30
28654;DHT22;24320;56.980;24.336;2023-06-14T08:28:16;28.40;40.90
28654;DHT22;24320;56.980;24.336;2023-06-14T08:30:43;28.10;40.60
28654;DHT22;24320;56.980;24.336;2023-06-14T08:33:10;27.90;40.90
28654;DHT22;24320;56.980;24.336;2023-06-14T08:35:43;27.80;39.80
28654;DHT22;24320;56.980;24.336;2023-06-14T08:38:11;27.70;41.00
28654;DHT22;24320;56.980;24.336;2023-06-14T08:40:39;27.70;40.50
28654;DHT22;24320;56.980;24.336;2023-06-14T08:43:09;27.70;42.30
28654;DHT22;24320;56.980;24.336;2023-06-14T08:45:36;27.50;40.80
28654;DHT22;24320;56.980;24.336;2023-06-14T08:48:04;27.40;41.00
28654;DHT22;24320;56.980;24.336;2023-06-14T08:50:32;27.10;40.10
28654;DHT22;24320;56.980;24.336;2023-06-14T08:53:02;26.80;38.10
28654;DHT22;24320;56.980;24.336;2023-06-14T08:55:31;26.50;39.50
28654;DHT22;24320;56.980;24.336;2023-06-14T08:58:03;26.40;40.70
28654;DHT22;24320;56.980;24.336;2023-06-14T09:00:32;26.40;41.30
28654;DHT22;24320;56.980;24.336;2023-06-14T09:03:00;26.60;41.40
28654;DHT22;24320;56.980;24.336;2023-06-14T09:05:28;26.60;42.80
28654;DHT22;24320;56.980;24.336;2023-06-14T09:07:55;26.70;43.20
28654;DHT22;24320;56.980;24.336;2023-06-14T09:10:33;26.70;41.30
28654;DHT22;24320;56.980;24.336;2023-06-14T09:13:01;26.60;44.70
28654;DHT22;24320;56.980;24.336;2023-06-14T09:15:35;26.80;43.60
28654;DHT22;24320;56.980;24.336;2023-06-14T09:18:03;27.10;41.50
28654;DHT22;24320;56.980;24.336;2023-06-14T09:20:31;27.00;40.40
28654;DHT22;24320;56.980;24.336;2023-06-14T09:22:58;26.90;43.00
28654;DHT22;24320;56.980;24.336;2023-06-14T09:25:25;26.90;43.30
28654;DHT22;24320;56.980;24.336;2023-06-14T09:28:09;26.90;45.00
28654;DHT22;24320;56.980;24.336;2023-06-14T09:30:39;27.10;43.80
28654;DHT22;24320;56.980;24.336;2023-06-14T09:33:07;27.10;42.50
28654;DHT22;24320;56.980;24.336;2023-06-14T09:35:34;27.10;45.50
28654;DHT22;24320;56.980;24.336;2023-06-14T09:38:01;27.20;46.70
28654;DHT22;24320;56.980;24.336;2023-06-14T09:40:33;27.40;43.10
28654;DHT22;24320;56.980;24.336;2023-06-14T09:43:06;27.30;43.90
28654;DHT22;24320;56.980;24.336;2023-06-14T09:45:36;27.20;41.40
28654;DHT22;24320;56.980;24.336;2023-06-14T09:48:04;27.10;39.50
28654;DHT22;24320;56.980;24.336;2023-06-14T09:50:34;26.90;40.60
28654;DHT22;24320;56.980;24.336;2023-06-14T09:53:06;26.60;40.90
28654;DHT22;24320;56.980;24.336;2023-06-14T09:55:36;26.30;44.30
28654;DHT22;24320;56.980;24.336;2023-06-14T09:58:05;26.40;44.50
28654;DHT22;24320;56.980;24.336;2023-06-14T10:00:34;26.60;45.30
28654;DHT22;24320;56.980;24.336;2023-06-14T10:03:16;27.00;45.70
28654;DHT22;24320;56.980;24.336;2023-06-14T10:05:48;27.40;44.10
28654;DHT22;24320;56.980;24.336;2023-06-14T10:08:18;27.50;40.30
28654;DHT22;24320;56.980;24.336;2023-06-14T10:10:46;27.40;41.50
28654;DHT22;24320;56.980;24.336;2023-06-14T10:13:14;27.40;41.70
28654;DHT22;24320;56.980;24.336;2023-06-14T10:16:07;27.30;41.80
28654;DHT22;24320;56.980;24.336;2023-06-14T10:21:38;26.90;41.70
28654;DHT22;24320;56.980;24.336;2023-06-14T10:24:12;26.80;42.10
28654;DHT22;24320;56.980;24.336;2023-06-14T10:26:54;26.80;41.70
28654;DHT22;24320;56.980;24.336;2023-06-14T10:29:26;26.90;44.90
28654;DHT22;24320;56.980;24.336;2023-06-14T10:32:00;27.10;41.90
28654;DHT22;24320;56.980;24.336;2023-06-14T10:34:29;27.30;41.90
28654;DHT22;24320;56.980;24.336;2023-06-14T10:39:43;27.20;42.00
28654;DHT22;24320;56.980;24.336;2023-06-14T10:42:13;27.20;43.80
28654;DHT22;24320;56.980;24.336;2023-06-14T10:50:02;27.30;40.10
28654;DHT22;24320;56.980;24.336;2023-06-14T10:52:33;27.10;38.80
28654;DHT22;24320;56.980;24.336;2023-06-14T10:55:12;27.00;39.40
28654;DHT22;24320;56.980;24.336;2023-06-14T10:57:46;26.90;41.10
28654;DHT22;24320;56.980;24.336;2023-06-14T11:00:27;26.90;40.20
28654;DHT22;24320;56.980;24.336;2023-06-14T11:06:14;26.90;40.40
28654;DHT22;24320;56.980;24.336;2023-06-14T11:11:36;26.90;38.90
28654;DHT22;24320;56.980;24.336;2023-06-14T11:14:05;27.00;40.90
28654;DHT22;24320;56.980;24.336;2023-06-14T11:16:49;26.90;41.90
28654;DHT22;24320;56.980;24.336;2023-06-14T11:19:16;26.90;40.50
28654;DHT22;24320;56.980;24.336;2023-06-14T11:21:49;26.80;39.70
28654;DHT22;24320;56.980;24.336;2023-06-14T11:24:17;26.60;41.20
28654;DHT22;24320;56.980;24.336;2023-06-14T11:26:46;26.50;40.90
28654;DHT22;24320;56.980;24.336;2023-06-14T11:29:15;26.40;39.70
28654;DHT22;24320;56.980;24.336;2023-06-14T11:31:43;26.30;40.00
28654;DHT22;24320;56.980;24.336;2023-06-14T11:34:13;26.30;41.50
28654;DHT22;24320;56.980;24.336;2023-06-14T11:36:40;26.40;40.00
28654;DHT22;24320;56.980;24.336;2023-06-14T11:39:08;26.60;40.60
28654;DHT22;24320;56.980;24.336;2023-06-14T11:41:45;26.70;41.70
28654;DHT22;24320;56.980;24.336;2023-06-14T11:44:12;26.70;41.50
28654;DHT22;24320;56.980;24.336;2023-06-14T11:46:39;26.80;42.60
28654;DHT22;24320;56.980;24.336;2023-06-14T11:49:07;27.00;42.80
28654;DHT22;24320;56.980;24.336;2023-06-14T11:51:36;27.30;41.00
28654;DHT22;24320;56.980;24.336;2023-06-14T11:54:05;27.50;40.20
28654;DHT22;24320;56.980;24.336;2023-06-14T11:56:33;27.40;41.80
28654;DHT22;24320;56.980;24.336;2023-06-14T11:59:01;27.50;43.60
28654;DHT22;24320;56.980;24.336;2023-06-14T12:01:30;27.60;39.50
28654;DHT22;24320;56.980;24.336;2023-06-14T12:03:59;27.50;39.60
28654;DHT22;24320;56.980;24.336;2023-06-14T12:06:28;27.50;40.30
28654;DHT22;24320;56.980;24.336;2023-06-14T12:08:56;27.40;40.60
28654;DHT22;24320;56.980;24.336;2023-06-14T12:11:23;27.40;44.70
28654;DHT22;24320;56.980;24.336;2023-06-14T12:13:51;27.40;47.90
28654;DHT22;24320;56.980;24.336;2023-06-14T12:16:18;27.40;46.00
28654;DHT22;24320;56.980;24.336;2023-06-14T12:18:45;27.00;47.20
28654;DHT22;24320;56.980;24.336;2023-06-14T12:21:12;26.60;48.20
28654;DHT22;24320;56.980;24.336;2023-06-14T12:23:42;26.40;48.20
28654;DHT22;24320;56.980;24.336;2023-06-14T12:26:09;26.10;49.30
28654;DHT22;24320;56.980;24.336;2023-06-14T12:28:49;25.80;49.30
28654;DHT22;24320;56.980;24.336;2023-06-14T12:31:16;25.50;50.80
28654;DHT22;24320;56.980;24.336;2023-06-14T12:33:46;25.30;50.30
28654;DHT22;24320;56.980;24.336;2023-06-14T12:36:16;25.30;51.80
28654;DHT22;24320;56.980;24.336;2023-06-14T12:38:46;25.30;52.50
28654;DHT22;24320;56.980;24.336;2023-06-14T12:41:13;25.40;50.90
28654;DHT22;24320;56.980;24.336;2023-06-14T12:43:43;25.40;51.40
28654;DHT22;24320;56.980;24.336;2023-06-14T12:46:10;25.30;51.00
28654;DHT22;24320;56.980;24.336;2023-06-14T12:48:37;25.10;50.80
28654;DHT22;24320;56.980;24.336;2023-06-14T12:51:04;25.10;52.50
28654;DHT22;24320;56.980;24.336;2023-06-14T12:53:32;25.10;51.70
28654;DHT22;24320;56.980;24.336;2023-06-14T12:55:59;25.00;52.60
28654;DHT22;24320;56.980;24.336;2023-06-14T12:58:26;25.00;53.60
28654;DHT22;24320;56.980;24.336;2023-06-14T13:00:53;25.20;51.50
28654;DHT22;24320;56.980;24.336;2023-06-14T13:03:20;25.30;52.50
28654;DHT22;24320;56.980;24.336;2023-06-14T13:05:48;25.40;51.50
28654;DHT22;24320;56.980;24.336;2023-06-14T13:08:15;25.30;50.80
28654;DHT22;24320;56.980;24.336;2023-06-14T13:10:42;25.10;51.30
28654;DHT22;24320;56.980;24.336;2023-06-14T13:13:09;25.10;51.50
28654;DHT22;24320;56.980;24.336;2023-06-14T13:15:39;25.20;51.70
28654;DHT22;24320;56.980;24.336;2023-06-14T13:18:07;25.20;51.50
28654;DHT22;24320;56.980;24.336;2023-06-14T13:20:34;25.20;52.40
28654;DHT22;24320;56.980;24.336;2023-06-14T13:23:01;25.50;50.10
28654;DHT22;24320;56.980;24.336;2023-06-14T13:25:30;25.50;49.30
28654;DHT22;24320;56.980;24.336;2023-06-14T13:27:57;25.40;49.70
28654;DHT22;24320;56.980;24.336;2023-06-14T13:30:24;25.50;49.50
28654;DHT22;24320;56.980;24.336;2023-06-14T13:32:51;25.60;50.20
28654;DHT22;24320;56.980;24.336;2023-06-14T13:35:19;25.50;49.50
28654;DHT22;24320;56.980;24.336;2023-06-14T13:37:46;25.30;49.00
28654;DHT22;24320;56.980;24.336;2023-06-14T13:40:13;25.20;49.90
28654;DHT22;24320;56.980;24.336;2023-06-14T13:42:41;25.20;50.00
28654;DHT22;24320;56.980;24.336;2023-06-14T13:45:09;25.30;50.50
28654;DHT22;24320;56.980;24.336;2023-06-14T13:47:37;25.40;49.50
28654;DHT22;24320;56.980;24.336;2023-06-14T13:50:05;25.20;50.20
28654;DHT22;24320;56.980;24.336;2023-06-14T13:52:32;25.10;50.20
28654;DHT22;24320;56.980;24.336;2023-06-14T13:54:59;25.10;50.30
28654;DHT22;24320;56.980;24.336;2023-06-14T13:57:27;25.00;50.60
28654;DHT22;24320;56.980;24.336;2023-06-14T13:59:54;24.80;50.70
28654;DHT22;24320;56.980;24.336;2023-06-14T14:02:22;24.70;51.60
28654;DHT22;24320;56.980;24.336;2023-06-14T14:04:49;24.60;51.80
28654;DHT22;24320;56.980;24.336;2023-06-14T14:07:20;24.50;52.40
28654;DHT22;24320;56.980;24.336;2023-06-14T14:09:47;24.50;51.90
28654;DHT22;24320;56.980;24.336;2023-06-14T14:12:14;24.40;52.40
28654;DHT22;24320;56.980;24.336;2023-06-14T14:14:41;24.40;52.20
28654;DHT22;24320;56.980;24.336;2023-06-14T14:17:09;24.40;52.50
28654;DHT22;24320;56.980;24.336;2023-06-14T14:19:36;24.50;53.00
28654;DHT22;24320;56.980;24.336;2023-06-14T14:22:03;24.60;52.40
28654;DHT22;24320;56.980;24.336;2023-06-14T14:24:30;24.70;52.50
28654;DHT22;24320;56.980;24.336;2023-06-14T14:26:57;24.70;51.50
28654;DHT22;24320;56.980;24.336;2023-06-14T14:29:27;24.70;52.40
28654;DHT22;24320;56.980;24.336;2023-06-14T14:31:57;24.80;51.60
28654;DHT22;24320;56.980;24.336;2023-06-14T14:34:25;24.80;51.90
28654;DHT22;24320;56.980;24.336;2023-06-14T14:36:52;24.80;51.70
28654;DHT22;24320;56.980;24.336;2023-06-14T14:39:19;24.80;51.20
28654;DHT22;24320;56.980;24.336;2023-06-14T14:41:46;24.80;51.50
28654;DHT22;24320;56.980;24.336;2023-06-14T14:44:19;24.80;52.10
28654;DHT22;24320;56.980;24.336;2023-06-14T14:46:46;24.80;50.90
28654;DHT22;24320;56.980;24.336;2023-06-14T14:49:13;24.80;51.00
28654;DHT22;24320;56.980;24.336;2023-06-14T14:51:41;24.70;51.40
28654;DHT22;24320;56.980;24.336;2023-06-14T14:54:08;24.80;51.60
28654;DHT22;24320;56.980;24.336;2023-06-14T14:56:35;24.80;51.30
28654;DHT22;24320;56.980;24.336;2023-06-14T14:59:02;24.80;51.10
28654;DHT22;24320;56.980;24.336;2023-06-14T15:01:29;24.90;51.10
28654;DHT22;24320;56.980;24.336;2023-06-14T15:03:57;24.90;50.90
28654;DHT22;24320;56.980;24.336;2023-06-14T15:06:26;24.90;50.40
28654;DHT22;24320;56.980;24.336;2023-06-14T15:08:53;24.90;52.30
28654;DHT22;24320;56.980;24.336;2023-06-14T15:11:20;24.90;50.70
28654;DHT22;24320;56.980;24.336;2023-06-14T15:13:47;25.00;50.90
28654;DHT22;24320;56.980;24.336;2023-06-14T15:16:16;24.90;51.30
28654;DHT22;24320;56.980;24.336;2023-06-14T15:18:43;24.70;51.10
28654;DHT22;24320;56.980;24.336;2023-06-14T15:21:10;24.60;51.70
28654;DHT22;24320;56.980;24.336;2023-06-14T15:23:37;24.40;51.60
28654;DHT22;24320;56.980;24.336;2023-06-14T15:26:04;24.30;52.80
28654;DHT22;24320;56.980;24.336;2023-06-14T15:28:31;24.20;52.10
28654;DHT22;24320;56.980;24.336;2023-06-14T15:30:59;24.10;52.50
28654;DHT22;24320;56.980;24.336;2023-06-14T15:33:27;24.00;52.30
28654;DHT22;24320;56.980;24.336;2023-06-14T15:35:54;23.90;53.50
28654;DHT22;24320;56.980;24.336;2023-06-14T15:38:22;24.00;52.50
28654;DHT22;24320;56.980;24.336;2023-06-14T15:40:49;24.10;51.70
28654;DHT22;24320;56.980;24.336;2023-06-14T15:43:18;24.20;52.10
28654;DHT22;24320;56.980;24.336;2023-06-14T15:45:45;24.20;52.20